createdAt,value
2022-11-03T00:01:38.494Z,15.73
2022-11-03T00:04:07.479Z,27.10
2022-11-03T00:06:37.111Z,16.65
2022-11-03T00:09:07.317Z,20.73
2022-11-03T00:11:36.031Z,20.05
2022-11-03T00:14:05.135Z,16.00
2022-11-03T00:16:33.572Z,19.33
2022-11-03T00:19:01.510Z,16.77
2022-11-03T00:21:29.824Z,18.65
2022-11-03T00:23:59.276Z,20.63
2022-11-03T00:26:28.665Z,17.98
2022-11-03T00:28:58.078Z,17.50
2022-11-03T00:31:28.072Z,20.27
2022-11-03T00:33:56.735Z,22.48
2022-11-03T00:36:26.570Z,24.92
2022-11-03T00:38:55.110Z,23.27
2022-11-03T00:41:25.146Z,19.40
2022-11-03T00:43:54.018Z,20.77
2022-11-03T00:46:23.710Z,25.50
2022-11-03T00:48:52.076Z,21.02
2022-11-03T00:51:21.841Z,22.60
2022-11-03T00:53:52.366Z,24.90
2022-11-03T00:56:22.236Z,24.67
2022-11-03T00:58:52.818Z,23.17
2022-11-03T01:01:22.777Z,21.20
2022-11-03T01:04:10.936Z,21.63
2022-11-03T01:06:54.423Z,23.63
2022-11-03T01:09:24.032Z,21.00
2022-11-03T01:11:57.702Z,20.95
2022-11-03T01:14:30.639Z,16.15
2022-11-03T01:16:59.084Z,18.42
2022-11-03T01:19:26.910Z,19.63
2022-11-03T01:21:54.988Z,19.23
2022-11-03T01:24:23.248Z,17.30
2022-11-03T01:26:51.372Z,23.30
2022-11-03T01:29:19.801Z,20.25
2022-11-03T01:31:49.113Z,20.88
2022-11-03T01:34:18.974Z,18.35
2022-11-03T01:36:47.431Z,13.40
2022-11-03T01:39:17.082Z,14.68
2022-11-03T01:41:46.605Z,17.75
2022-11-03T01:44:33.559Z,17.70
2022-11-03T01:47:08.751Z,17.75
2022-11-03T01:49:41.929Z,16.30
2022-11-03T01:52:14.991Z,18.20
2022-11-03T01:54:48.960Z,19.52
2022-11-03T01:57:21.265Z,16.85
2022-11-03T01:59:55.657Z,14.85
2022-11-03T02:02:25.026Z,16.95
2022-11-03T02:04:58.989Z,22.45
2022-11-03T02:07:34.241Z,19.95
2022-11-03T02:10:03.237Z,18.75
2022-11-03T02:12:34.766Z,17.25
2022-11-03T02:15:06.097Z,19.85
2022-11-03T02:17:40.359Z,14.98
2022-11-03T02:20:13.605Z,15.32
2022-11-03T02:23:12.803Z,16.58
2022-11-03T02:25:52.250Z,12.80
2022-11-03T02:28:23.497Z,12.65
2022-11-03T02:31:00.588Z,18.63
2022-11-03T02:33:38.765Z,19.20
2022-11-03T02:36:14.566Z,17.75
2022-11-03T02:38:51.829Z,14.57
2022-11-03T02:41:23.386Z,19.20
2022-11-03T02:43:57.907Z,16.92
2022-11-03T02:46:28.002Z,18.33
2022-11-03T02:48:57.742Z,14.65
2022-11-03T02:51:25.986Z,15.43
2022-11-03T02:54:03.949Z,18.15
2022-11-03T02:56:37.196Z,18.02
2022-11-03T02:59:10.969Z,22.05
2022-11-03T03:01:48.284Z,16.83
2022-11-03T03:04:21.447Z,17.00
2022-11-03T03:06:55.224Z,19.75
2022-11-03T03:09:27.259Z,19.38
2022-11-03T03:12:00.197Z,18.23
2022-11-03T03:14:36.079Z,15.48
2022-11-03T03:17:08.964Z,18.98
2022-11-03T03:19:49.145Z,16.42
2022-11-03T03:22:25.814Z,16.65
2022-11-03T03:25:00.939Z,17.60
2022-11-03T03:27:34.542Z,14.48
2022-11-03T03:30:10.393Z,16.45
2022-11-03T03:32:41.576Z,19.38
2022-11-03T03:35:17.249Z,16.20
2022-11-03T03:37:52.088Z,13.90
2022-11-03T03:40:31.503Z,15.93
2022-11-03T03:43:02.686Z,16.77
2022-11-03T03:45:32.616Z,15.05
2022-11-03T03:48:01.438Z,19.10
2022-11-03T03:50:36.077Z,15.93
2022-11-03T03:53:06.484Z,13.95
2022-11-03T03:55:38.912Z,14.57
2022-11-03T03:58:10.904Z,11.82
2022-11-03T04:00:40.300Z,13.07
2022-11-03T04:03:14.231Z,10.95
2022-11-03T04:05:42.180Z,11.13
2022-11-03T04:08:10.116Z,14.75
2022-11-03T04:10:37.962Z,10.90
2022-11-03T04:13:24.478Z,13.13
2022-11-03T04:16:11.224Z,10.20
2022-11-03T04:18:53.132Z,10.75
2022-11-03T04:21:38.561Z,15.73
2022-11-03T04:24:07.391Z,12.10
2022-11-03T04:26:35.307Z,14.18
2022-11-03T04:29:03.336Z,15.40
2022-11-03T04:31:36.495Z,13.63
2022-11-03T04:34:06.153Z,11.48
2022-11-03T04:36:34.069Z,14.68
2022-11-03T04:39:02.215Z,13.20
2022-11-03T04:41:34.169Z,13.23
2022-11-03T04:44:02.401Z,14.02
2022-11-03T04:46:32.344Z,11.88
2022-11-03T04:49:03.019Z,10.00
2022-11-03T04:51:34.312Z,15.13
2022-11-03T04:54:05.087Z,14.07
2022-11-03T04:56:33.802Z,17.58
2022-11-03T04:59:01.623Z,12.68
2022-11-03T05:01:31.069Z,13.77
2022-11-03T05:04:00.639Z,16.20
2022-11-03T05:06:30.858Z,12.57
2022-11-03T05:09:01.811Z,9.30
2022-11-03T05:11:33.572Z,13.80
2022-11-03T05:14:03.559Z,11.35
2022-11-03T05:16:32.820Z,13.00
2022-11-03T05:19:02.253Z,9.60
2022-11-03T05:21:30.490Z,13.82
2022-11-03T05:24:02.469Z,17.83
2022-11-03T05:26:35.237Z,15.23
2022-11-03T05:29:04.823Z,15.27
2022-11-03T05:31:36.386Z,14.90
2022-11-03T05:34:22.097Z,17.83
2022-11-03T05:36:50.066Z,12.15
2022-11-03T05:39:29.708Z,11.38
2022-11-03T05:42:00.039Z,12.95
2022-11-03T05:44:33.168Z,13.68
2022-11-03T05:47:05.953Z,9.25
2022-11-03T05:49:37.539Z,11.35
2022-11-03T05:52:07.048Z,9.40
2022-11-03T05:54:35.930Z,9.90
2022-11-03T05:57:06.144Z,19.27
2022-11-03T05:59:34.214Z,11.18
2022-11-03T06:02:02.433Z,11.65
2022-11-03T06:04:33.608Z,17.92
2022-11-03T06:07:05.651Z,16.55
2022-11-03T06:09:35.095Z,12.15
2022-11-03T06:12:06.673Z,13.30
2022-11-03T06:14:37.576Z,15.15
2022-11-03T06:17:07.670Z,13.50
2022-11-03T06:19:39.281Z,17.15
2022-11-03T06:22:15.592Z,9.40
2022-11-03T06:24:43.885Z,12.93
2022-11-03T06:27:15.479Z,13.45
2022-11-03T06:29:47.160Z,13.35
2022-11-03T06:32:15.064Z,15.25
2022-11-03T06:34:44.945Z,12.55
2022-11-03T06:37:20.921Z,19.42
2022-11-03T06:39:49.854Z,19.65
2022-11-03T06:42:21.728Z,12.70
2022-11-03T06:44:51.363Z,15.25
2022-11-03T06:47:24.472Z,20.80
2022-11-03T06:49:55.428Z,15.25
2022-11-03T06:52:30.884Z,18.17
2022-11-03T06:55:17.726Z,12.88
2022-11-03T06:57:48.274Z,14.40
2022-11-03T07:00:34.190Z,14.35
2022-11-03T07:03:09.082Z,15.38
2022-11-03T07:05:38.187Z,14.05
2022-11-03T07:08:18.506Z,15.65
2022-11-03T07:10:46.576Z,17.98
2022-11-03T07:13:16.767Z,14.23
2022-11-03T07:15:45.815Z,11.27
2022-11-03T07:18:20.950Z,12.05
2022-11-03T07:20:49.290Z,15.95
2022-11-03T07:23:20.995Z,15.48
2022-11-03T07:25:53.466Z,13.27
2022-11-03T07:28:23.109Z,18.35
2022-11-03T07:30:51.162Z,16.27
2022-11-03T07:33:23.721Z,12.68
2022-11-03T07:36:14.235Z,13.82
2022-11-03T07:38:43.566Z,13.05
2022-11-03T07:41:18.379Z,12.25
2022-11-03T07:43:54.736Z,16.80
2022-11-03T07:46:24.530Z,12.25
2022-11-03T07:48:56.768Z,14.73
2022-11-03T07:51:26.905Z,15.65
2022-11-03T07:54:00.059Z,13.77
2022-11-03T07:56:33.298Z,13.15
2022-11-03T07:59:05.868Z,13.80
2022-11-03T08:01:37.740Z,11.50
2022-11-03T08:04:07.906Z,10.18
2022-11-03T08:06:35.847Z,8.75
2022-11-03T08:09:06.057Z,8.30
2022-11-03T08:11:34.034Z,7.30
2022-11-03T08:14:01.870Z,10.25
2022-11-03T08:16:29.717Z,9.30
2022-11-03T08:18:57.637Z,8.15
2022-11-03T08:21:25.585Z,10.00
2022-11-03T08:23:53.447Z,7.40
2022-11-03T08:26:23.086Z,8.38
2022-11-03T08:28:51.361Z,6.82
2022-11-03T08:31:19.269Z,9.77
2022-11-03T08:33:47.335Z,10.68
2022-11-03T08:36:15.195Z,9.63
2022-11-03T08:38:43.148Z,8.10
2022-11-03T08:41:11.098Z,6.28
2022-11-03T08:43:40.369Z,11.82
2022-11-03T08:46:16.725Z,7.85
2022-11-03T08:48:46.536Z,4.38
2022-11-03T08:51:15.487Z,5.13
2022-11-03T08:53:43.723Z,8.00
2022-11-03T08:56:13.456Z,6.65
2022-11-03T08:58:45.029Z,8.13
2022-11-03T09:01:13.334Z,9.70
2022-11-03T09:03:42.107Z,6.30
2022-11-03T09:06:10.178Z,6.05
2022-11-03T09:11:26.440Z,11.00
2022-11-03T09:13:57.787Z,9.40
2022-11-03T09:16:26.432Z,8.40
2022-11-03T09:18:54.320Z,6.32
2022-11-03T09:21:22.393Z,7.82
2022-11-03T09:23:50.245Z,8.93
2022-11-03T09:26:18.094Z,10.95
2022-11-03T09:28:46.203Z,10.05
2022-11-03T09:31:15.501Z,10.52
2022-11-03T09:33:43.402Z,8.65
2022-11-03T09:36:11.568Z,6.85
2022-11-03T09:38:39.429Z,7.38
2022-11-03T09:41:18.689Z,7.85
2022-11-03T09:43:55.614Z,10.88
2022-11-03T09:46:26.620Z,7.20
2022-11-03T09:48:55.816Z,10.95
2022-11-03T09:51:25.499Z,15.38
2022-11-03T09:53:53.388Z,6.82
2022-11-03T09:56:24.204Z,6.93
2022-11-03T09:58:54.457Z,10.90
2022-11-03T10:01:25.000Z,8.43
2022-11-03T10:03:53.688Z,7.70
2022-11-03T10:06:21.646Z,9.13
2022-11-03T10:08:50.516Z,5.53
2022-11-03T10:11:18.906Z,8.73
2022-11-03T10:13:49.429Z,9.77
2022-11-03T10:16:21.547Z,9.35
2022-11-03T10:18:51.020Z,10.40
2022-11-03T10:21:20.680Z,9.80
2022-11-03T10:23:50.477Z,7.07
2022-11-03T10:26:20.144Z,5.80
2022-11-03T10:29:02.544Z,10.07
2022-11-03T10:31:37.174Z,10.27
2022-11-03T10:34:24.004Z,7.47
2022-11-03T10:36:52.213Z,9.45
2022-11-03T10:39:32.034Z,12.85
2022-11-03T10:42:01.110Z,9.15
2022-11-03T10:44:30.995Z,5.88
2022-11-03T10:47:00.614Z,12.18
2022-11-03T10:49:31.477Z,8.65
2022-11-03T10:52:17.319Z,7.57
2022-11-03T10:54:45.309Z,11.93
2022-11-03T10:57:13.383Z,10.65
2022-11-03T10:59:42.549Z,10.00
2022-11-03T11:02:18.426Z,11.23
2022-11-03T11:04:50.040Z,10.05
2022-11-03T11:07:23.332Z,10.57
2022-11-03T11:09:51.449Z,7.18
2022-11-03T11:12:22.534Z,11.70
2022-11-03T11:14:55.746Z,11.32
2022-11-03T11:17:44.916Z,12.23
2022-11-03T11:20:36.394Z,16.00
2022-11-03T11:23:46.759Z,8.65
2022-11-03T11:26:18.025Z,8.55
2022-11-03T11:28:47.794Z,12.65
2022-11-03T11:31:32.581Z,8.65
2022-11-03T11:34:37.579Z,7.88
2022-11-03T11:37:36.493Z,12.57
2022-11-03T11:40:13.035Z,17.15
2022-11-03T11:43:16.570Z,10.70
2022-11-03T11:46:21.496Z,6.70
2022-11-03T11:48:51.424Z,12.35
2022-11-03T11:51:19.335Z,9.82
2022-11-03T11:53:58.722Z,10.90
2022-11-03T11:56:44.173Z,8.82
2022-11-03T11:59:24.202Z,13.55
2022-11-03T12:01:54.553Z,11.63
2022-11-03T12:04:26.325Z,10.07
2022-11-03T12:06:55.993Z,12.27
2022-11-03T12:09:28.324Z,10.02
2022-11-03T12:12:00.837Z,7.47
2022-11-03T12:14:35.866Z,7.97
2022-11-03T12:17:34.512Z,7.97
2022-11-03T12:20:22.591Z,10.27
2022-11-03T12:22:52.190Z,9.57
2022-11-03T12:25:40.161Z,8.30
2022-11-03T12:28:08.663Z,10.00
2022-11-03T12:30:40.032Z,9.68
2022-11-03T12:33:08.903Z,6.72
2022-11-03T12:35:37.169Z,7.45
2022-11-03T12:38:06.522Z,9.60
2022-11-03T12:40:34.469Z,11.93
2022-11-03T12:43:02.461Z,13.45
2022-11-03T12:45:30.332Z,12.95
2022-11-03T12:47:58.171Z,9.10
2022-11-03T12:50:26.195Z,7.18
2022-11-03T12:52:54.189Z,11.25
2022-11-03T12:55:23.563Z,8.63
2022-11-03T12:57:51.611Z,11.05
2022-11-03T13:00:19.751Z,8.60
2022-11-03T13:02:47.965Z,10.10
2022-11-03T13:05:16.142Z,16.45
2022-11-03T13:07:44.360Z,10.65
2022-11-03T13:10:12.436Z,15.25
2022-11-03T13:12:41.840Z,12.57
2022-11-03T13:15:13.546Z,12.45
2022-11-03T13:20:29.648Z,13.32
2022-11-03T13:22:57.574Z,11.18
2022-11-03T13:25:25.517Z,15.27
2022-11-03T13:27:55.084Z,13.07
2022-11-03T13:30:23.391Z,12.10
2022-11-03T13:32:51.582Z,8.27
2022-11-03T13:35:19.702Z,10.95
2022-11-03T13:37:47.924Z,12.88
2022-11-03T13:40:50.411Z,10.55
2022-11-03T13:43:06.196Z,6.00
2022-11-03T13:45:34.353Z,9.88
2022-11-03T13:50:52.079Z,7.20
2022-11-03T13:56:11.529Z,9.32
2022-11-03T14:01:32.788Z,8.50
2022-11-03T14:06:49.104Z,13.63
2022-11-03T14:09:17.017Z,11.57
2022-11-03T14:12:02.590Z,11.50
2022-11-03T14:14:32.157Z,12.43
2022-11-03T14:17:00.066Z,9.02
2022-11-03T14:19:36.543Z,10.25
2022-11-03T14:22:07.935Z,13.73
2022-11-03T14:24:35.777Z,11.38
2022-11-03T14:27:03.612Z,8.85
2022-11-03T14:29:32.998Z,11.73
2022-11-03T14:32:00.858Z,9.70
2022-11-03T14:34:28.765Z,11.07
2022-11-03T14:36:56.829Z,12.75
2022-11-03T14:39:24.731Z,13.15
2022-11-03T14:42:03.506Z,8.02
2022-11-03T14:44:33.875Z,10.40
2022-11-03T14:47:02.769Z,10.93
2022-11-03T14:49:31.476Z,9.25
2022-11-03T14:51:59.982Z,12.85
2022-11-03T14:54:27.918Z,10.77
2022-11-03T14:56:55.945Z,11.50
2022-11-03T14:59:24.454Z,14.60
2022-11-03T15:01:54.271Z,12.50
2022-11-03T15:04:22.990Z,10.23
2022-11-03T15:06:51.425Z,7.88
2022-11-03T15:09:19.713Z,10.45
2022-11-03T15:11:48.029Z,11.38
2022-11-03T15:14:15.977Z,10.68
2022-11-03T15:16:46.287Z,10.88
2022-11-03T15:19:15.526Z,12.02
2022-11-03T15:21:43.489Z,12.93
2022-11-03T15:26:59.283Z,10.80
2022-11-03T15:29:27.163Z,9.32
2022-11-03T15:31:54.989Z,12.27
2022-11-03T15:34:24.409Z,12.40
2022-11-03T15:36:52.246Z,11.52
2022-11-03T15:39:20.112Z,8.65
2022-11-03T15:41:47.994Z,7.57
2022-11-03T15:44:15.769Z,11.35
2022-11-03T15:46:43.973Z,16.92
2022-11-03T15:49:11.829Z,13.13
2022-11-03T15:51:41.048Z,16.15
2022-11-03T15:54:09.321Z,11.10
2022-11-03T15:56:37.531Z,15.55
2022-11-03T15:59:05.368Z,16.38
2022-11-03T16:01:35.682Z,11.00
2022-11-03T16:04:05.974Z,13.55
2022-11-03T16:07:01.641Z,14.45
2022-11-03T16:09:26.769Z,10.65
2022-11-03T16:11:54.989Z,13.55
2022-11-03T16:14:23.020Z,12.27
2022-11-03T16:16:51.814Z,12.90
2022-11-03T16:19:20.131Z,13.63
2022-11-03T16:21:48.053Z,11.27
2022-11-03T16:24:16.223Z,16.95
2022-11-03T16:26:45.702Z,18.98
2022-11-03T16:29:13.582Z,17.80
2022-11-03T16:31:41.770Z,16.83
2022-11-03T16:34:10.069Z,10.85
2022-11-03T16:36:37.908Z,17.73
2022-11-03T16:39:06.097Z,13.35
2022-11-03T16:41:34.159Z,13.20
2022-11-03T16:44:03.697Z,19.77
2022-11-03T16:46:31.736Z,13.13
2022-11-03T16:51:27.424Z,19.27
2022-11-03T16:53:57.278Z,13.40
2022-11-03T16:56:25.383Z,17.02
2022-11-03T16:58:53.227Z,18.42
2022-11-03T17:01:22.884Z,14.00
2022-11-03T17:03:52.408Z,17.40
2022-11-03T17:06:20.253Z,14.10
2022-11-03T17:08:53.209Z,17.30
2022-11-03T17:11:36.081Z,14.02
2022-11-03T17:14:06.293Z,13.60
2022-11-03T17:16:36.069Z,17.88
2022-11-03T17:19:04.332Z,18.45
2022-11-03T17:21:32.543Z,15.45
2022-11-03T17:24:00.420Z,13.65
2022-11-03T17:26:42.909Z,20.25
2022-11-03T17:29:16.439Z,19.50
2022-11-03T17:31:45.947Z,17.25
2022-11-03T17:34:14.026Z,17.75
2022-11-03T17:36:42.000Z,14.32
2022-11-03T17:39:15.793Z,20.40
2022-11-03T17:41:44.015Z,19.45
2022-11-03T17:44:13.159Z,21.38
2022-11-03T17:46:41.257Z,19.17
2022-11-03T17:49:10.746Z,16.52
2022-11-03T17:51:43.244Z,25.48
2022-11-03T17:54:17.245Z,21.40
2022-11-03T17:56:45.373Z,21.15
2022-11-03T17:59:16.585Z,21.67
2022-11-03T18:01:45.430Z,21.33
2022-11-03T18:04:16.293Z,19.52
2022-11-03T18:06:45.499Z,19.08
2022-11-03T18:09:13.387Z,19.08
2022-11-03T18:12:01.597Z,18.70
2022-11-03T18:14:30.576Z,17.02
2022-11-03T18:16:59.108Z,19.20
2022-11-03T18:19:31.995Z,19.50
2022-11-03T18:22:00.163Z,17.55
2022-11-03T18:24:28.630Z,16.45
2022-11-03T18:26:56.468Z,20.23
2022-11-03T18:29:24.452Z,16.50
2022-11-03T18:31:52.399Z,14.95
2022-11-03T18:34:24.228Z,20.02
2022-11-03T18:36:54.486Z,21.60
2022-11-03T18:39:24.395Z,20.48
2022-11-03T18:41:52.515Z,16.30
2022-11-03T18:44:22.740Z,22.98
2022-11-03T18:46:52.359Z,25.58
2022-11-03T18:49:20.892Z,19.88
2022-11-03T18:51:50.584Z,21.45
2022-11-03T18:54:22.458Z,14.75
2022-11-03T18:56:53.105Z,15.32
2022-11-03T18:59:37.180Z,24.98
2022-11-03T19:02:16.201Z,18.02
2022-11-03T19:04:44.184Z,22.10
2022-11-03T19:07:13.935Z,24.13
2022-11-03T19:09:44.391Z,20.70
2022-11-03T19:12:15.587Z,22.88
2022-11-03T19:14:46.119Z,25.48
2022-11-03T19:17:22.878Z,15.00
2022-11-03T19:19:52.897Z,21.42
2022-11-03T19:22:22.794Z,28.17
2022-11-03T19:24:52.007Z,23.55
2022-11-03T19:27:25.945Z,21.92
2022-11-03T19:29:55.297Z,19.30
2022-11-03T19:32:27.716Z,20.90
2022-11-03T19:34:58.308Z,25.83
2022-11-03T19:37:31.012Z,31.15
2022-11-03T19:40:06.069Z,27.13
2022-11-03T19:42:36.690Z,23.10
2022-11-03T19:45:07.261Z,26.45
2022-11-03T19:47:39.714Z,26.05
2022-11-03T19:50:18.499Z,17.30
2022-11-03T19:52:46.709Z,24.50
2022-11-03T19:55:16.789Z,24.42
2022-11-03T19:57:44.972Z,15.07
2022-11-03T20:00:17.499Z,12.70
2022-11-03T20:02:45.897Z,18.15
2022-11-03T20:05:14.449Z,18.33
2022-11-03T20:07:44.376Z,17.58
2022-11-03T20:10:18.470Z,19.92
2022-11-03T20:12:47.231Z,17.17
2022-11-03T20:15:17.542Z,16.30
2022-11-03T20:17:46.083Z,21.65
2022-11-03T20:20:16.597Z,15.68
2022-11-03T20:22:47.614Z,15.32
2022-11-03T20:25:22.441Z,18.35
2022-11-03T20:27:51.477Z,16.92
2022-11-03T20:30:21.247Z,14.98
2022-11-03T20:32:50.133Z,15.13
2022-11-03T20:35:23.123Z,17.65
2022-11-03T20:37:59.565Z,16.38
2022-11-03T20:40:32.901Z,16.48
2022-11-03T20:43:03.446Z,23.00
2022-11-03T20:45:33.023Z,18.02
2022-11-03T20:48:00.937Z,19.65
2022-11-03T20:50:32.516Z,17.88
2022-11-03T20:53:00.555Z,16.98
2022-11-03T20:55:30.306Z,15.05
2022-11-03T20:57:59.610Z,21.25
2022-11-03T21:00:28.376Z,18.83
2022-11-03T21:02:57.486Z,19.92
2022-11-03T21:05:27.240Z,13.13
2022-11-03T21:07:56.220Z,18.27
2022-11-03T21:10:25.251Z,22.05
2022-11-03T21:12:55.205Z,17.25
2022-11-03T21:15:57.741Z,22.88
2022-11-03T21:18:48.392Z,14.45
2022-11-03T21:21:20.957Z,23.67
2022-11-03T21:23:49.307Z,20.77
2022-11-03T21:26:17.249Z,18.52
2022-11-03T21:28:48.818Z,18.60
2022-11-03T21:31:17.008Z,20.52
2022-11-03T21:33:44.867Z,20.35
2022-11-03T21:36:13.056Z,17.60
2022-11-03T21:38:41.072Z,22.15
2022-11-03T21:41:26.564Z,18.73
2022-11-03T21:44:13.829Z,18.73
2022-11-03T21:46:42.923Z,22.33
2022-11-03T21:49:29.001Z,16.70
2022-11-03T21:51:56.844Z,20.55
2022-11-03T21:54:24.910Z,17.02
2022-11-03T21:56:52.722Z,18.60
2022-11-03T21:59:22.002Z,22.70
2022-11-03T22:01:53.164Z,19.48
2022-11-03T22:04:21.471Z,27.33
2022-11-03T22:06:50.494Z,21.05
2022-11-03T22:09:18.956Z,19.95
2022-11-03T22:11:47.779Z,14.20
2022-11-03T22:14:16.011Z,18.08
2022-11-03T22:16:44.800Z,22.42
2022-11-03T22:19:32.327Z,19.70
2022-11-03T22:22:19.134Z,17.83
2022-11-03T22:25:04.386Z,20.83
2022-11-03T22:27:33.686Z,22.65
2022-11-03T22:30:19.948Z,19.02
2022-11-03T22:32:53.651Z,20.42
2022-11-03T22:35:40.255Z,21.17
2022-11-03T22:38:10.745Z,18.33
2022-11-03T22:40:57.426Z,20.55
2022-11-03T22:43:43.562Z,23.50
2022-11-03T22:46:12.761Z,18.55
2022-11-03T22:48:42.455Z,22.00
2022-11-03T22:51:13.210Z,19.27
2022-11-03T22:53:59.255Z,16.60
2022-11-03T22:56:29.155Z,21.50
2022-11-03T22:58:57.604Z,22.23
2022-11-03T23:01:27.800Z,15.25
2022-11-03T23:03:57.761Z,18.70
2022-11-03T23:06:27.821Z,20.13
2022-11-03T23:08:56.861Z,20.10
2022-11-03T23:11:25.927Z,19.88
2022-11-03T23:13:56.491Z,22.98
2022-11-03T23:16:26.132Z,17.60
2022-11-03T23:19:12.261Z,22.20
2022-11-03T23:21:41.906Z,16.33
2022-11-03T23:24:27.320Z,16.13
2022-11-03T23:26:55.262Z,20.50
2022-11-03T23:29:23.199Z,17.48
2022-11-03T23:31:51.084Z,18.23
2022-11-03T23:34:19.187Z,19.75
2022-11-03T23:36:48.695Z,23.00
2022-11-03T23:39:18.650Z,19.25
2022-11-03T23:41:46.884Z,19.00
2022-11-03T23:44:16.400Z,18.13
2022-11-03T23:47:02.889Z,16.90
2022-11-03T23:49:31.140Z,20.83
2022-11-03T23:52:00.719Z,21.02
2022-11-03T23:54:28.903Z,28.38
2022-11-03T23:57:14.613Z,20.27
2022-11-03T23:59:42.783Z,19.10
